Weather

Vsebine: Paragliding sitesCurrent conditionsCurrent conditions (amateur)Radar rainfal imageMeteo stationsPanoramic cameras


Current conditions (official report)

Show amateur stations

Click on a specific station to see its location

Location Weather conditions Temperature Wind Air pressure Last updated Geopedia
    °C direction speed (m/s) gusts (m/s) hPa    
Babno Polje 17   - - 2021-09-26 08:54:00
Babno Polje (756 m) 5   - - 2016-01-12 07:40:00
Bilje Nova Gorica 17   1 1 1022 2021-09-26 08:54:00
Bilje pri Novi Gorici 16   1 - 1021 2021-09-26 08:42:00
Blegoš 13   - - 2021-09-26 08:44:00
Bohinjska Češnjica 10   - - 2021-09-26 08:54:00
Boršt Gorenja vas 17   3 6 2021-09-26 08:53:00
Bovec 15   - 1 1022 2021-09-26 08:34:00
Breginj 15   - - 2021-09-26 08:54:00
Bukovski vrh 15   - - 2021-09-26 08:54:00
Celje 11   1 - 1020 2021-09-26 08:42:00
Cerkniško jezero 17   - - 2021-09-26 08:54:00
Črnomelj 12   - - 1021 2021-09-26 08:42:00
Davča 13   - - 2021-09-26 08:54:00
Dobliče Črnomelj 15   - 1 1020 2021-09-26 08:32:00
Dolenje Ajdovščina 16   - - 2021-09-26 08:33:00
Gačnik 13   - 1 2021-09-26 08:54:00
Godnje 16   1 2 2021-09-26 08:54:00
Gornji Grad 15   - - 2021-09-26 08:54:00
Hočko Pohorje 18   - - 2021-09-26 08:54:00
Hrastnik 18   3 5 2021-09-26 08:53:00
Idrija 13   - - 2021-09-26 08:54:00
Ilirska Bistrica 11   - 1 2021-09-26 08:33:00
Iskrba 12   - 1 2021-09-26 08:53:00
Jeronim 15   - - 2021-09-26 08:54:00
Jeruzalem 16   - - 2021-09-26 08:53:00
Jezersko 8   - - 2021-09-26 08:53:00
Juršče   - - 2016-09-13 14:33:00
Kamniška Bistrica 7   - - 2021-09-26 08:53:00
Kanin 11   6 11 2021-09-26 08:53:00
Katarina nad Ljubljano 16   - - 2021-09-26 08:42:00
Kočevje 12   1 2 2021-09-26 08:53:00
Koper Kapitanija 19   1 2 1021 2021-09-26 08:34:00
Korensko sedlo 11   - - 2021-09-26 08:53:00
Kraj. park Goričko 1   2 5 2021-01-15 12:04:00
Krajinski park Goričko 16   1 2 2021-09-26 08:33:00
Kranj 13   - - 2021-09-26 08:53:00
Kredarica 10   3 8 2021-09-26 08:53:00
Krn 15   - - 2021-09-26 08:53:00
Krško 18   3 5 1019 2021-09-26 08:39:00
Krvavec 11   6 8 2021-09-26 08:53:00
Kubed 18   - - 2021-09-26 08:53:00
Kum 11   7 14 2021-09-26 08:53:00
Lendava 12   - 1 1019 2021-09-26 08:34:00
Let. E. Rusjana Maribor 2   1 3 1020 2021-01-15 12:04:00
Let. J. Pučnika Lj. 0   2 3 1011 2015-11-26 11:03:00
Let. J. Pučnika Ljubljana -1   1 2 1020 2021-01-15 12:03:00
Letališče Cerklje ob Krki 15   3 - 1020 2021-09-26 08:42:00
Letališče Edvarda Rusjana Maribor 10   1 - 1020 2021-09-26 08:42:00
Letališče Jožeta Pučnika Ljubljana 12   2 3 1021 2021-09-26 08:55:00
Letališče Lesce 10   - - 1022 2021-09-26 08:42:00
Letališče Portorož 17   3 - 1021 2021-09-26 08:42:00
Lisca 13   8 12 2021-09-26 08:53:00
Lisca (943 m) 9   5 12 2016-03-29 14:02:00
Litija 11   - - 2021-09-26 08:53:00
Ljubljana 14   1 2 1021 2021-09-26 08:53:00
Logarska dolina 7   - - 2021-09-26 08:53:00
Logatec 17   - - 2021-09-26 08:53:00
Luka Koper 18   1 1 2021-09-26 08:33:00
Malkovec 17   3 5 1020 2021-09-26 08:34:00
Maribor 16   1 1 2021-09-26 08:53:00
Maribor - Tabor -3   1 2 2020-01-14 09:33:00
Marinča vas 15   - - 2021-09-26 08:54:00
Metlika 14   - - 2021-09-26 08:53:00
Mežica 10   - - 2021-09-26 08:53:00
Miklavž na Gorjancih 14   - - 2021-09-26 08:53:00
Murska Sobota 11   1 1 1020 2021-09-26 08:53:00
Nanos 13   5 9 2021-09-26 08:53:00
Nova Gorica 18   1 1 2021-09-26 08:53:00
Nova vas - Bloke 17   - - 2021-09-26 08:53:00
Novo mesto 15   1 1 1019 2021-09-26 08:55:00
Osilnica 13   - - 2021-09-26 08:53:00
Otlica 13   1 2 2021-09-26 08:53:00
Otlica (965 m) 7   4 7 2016-03-31 08:24:00
Park Škocj. jame 3   3 7 1018 2021-01-15 12:02:00
Park Škocjanske jame 13   1 2 1022 2021-09-26 08:32:00
Pasja ravan 14   2 6 2021-09-26 08:53:00
Pavličevo sedlo 11   - - 2021-09-26 08:53:00
Piran - oceanografska boja 20   2 3 2021-09-26 08:43:00
Piran-ocean. boja 5   8 9 2021-01-15 11:08:00
Planina pod Golico 10   - - 2021-09-26 08:53:00
Podčetrtek 11   1 2 1019 2021-09-26 08:34:00
Podnanos 18   1 1 2021-09-26 08:53:00
Postojna 16   4 6 1021 2021-09-26 08:53:00
Predel 12   - - 2021-09-26 08:53:00
Ptuj 13   - 1 2021-09-26 08:53:00
Ptuj - Terme -2   2 3 2017-01-19 14:35:00
Radegunda 15   - - 2021-09-26 08:54:00
Radenci 21   - - 1016 2020-09-22 11:34:00
Rateče 7   - - 2021-09-26 08:42:00
Rateče (864 m) -4   - 1 2021-01-06 08:33:00
Ratitovec 9   9 13 2021-09-26 08:53:00
Ravne na Koroškem 13   1 4 2021-09-26 08:34:00
Rogaška Slatina 14   1 2 2021-09-26 08:53:00
Rogla 17   1 2 2021-09-26 08:53:00
Rogla (1492 m) -11   4 7 2016-01-18 10:32:00
Rudno polje 7   - 1 2021-09-26 08:53:00
Rudno polje (1347 m) -2   1 3 2015-10-20 07:36:00
Sevno 17   - - 2021-09-26 08:54:00
Slavnik 14   4 5 2021-09-26 08:53:00
Slovenj Gradec 8   - - 2021-09-26 08:42:00
Slovenske Konjice 19   - - 2021-09-26 08:53:00
Sveti Trije Kralji na Pohorju 16   - - 2021-09-26 08:53:00
Sviščaki 12   2 3 2021-09-26 08:53:00
Šebreljski vrh 13   - - 2021-09-26 08:53:00
Šmartno pri Slovenj Gradcu 12   - 1 2021-09-26 08:53:00
Tatre 15   - - 2021-09-26 08:53:00
Tolmin - Volče 15   - 1 2021-09-26 08:53:00
Topol 16   - - 2021-09-26 08:53:00
Trbovlje 18   1 3 2021-09-26 08:53:00
Trebnje 16   - - 2021-09-26 08:53:00
Trije Kralji na Pohorju -5   - - 2021-01-15 12:03:00
Trojane - Limovce 15   6 9 1020 2021-09-26 08:53:00
Uršlja gora 16   2 2 2021-09-26 08:53:00
Vedrijan 19   - - 2021-09-26 08:53:00
Velenje 13   - - 2021-09-26 08:53:00
Velike Lašče 18   1 3 2021-09-26 08:53:00
Vogel 11   2 5 2021-09-26 08:53:00
Vojsko 13   1 - 2021-09-26 08:42:00
Vrbanski plato -2   2 3 2016-12-07 11:23:00
Vrhnika 18   1 2 2021-09-26 08:53:00
Vršič 9   - - 2021-09-26 08:53:00
Zadlog 16   - - 2021-09-26 08:54:00
Zelenica 11   - - 2021-09-26 08:53:00
Zgornja Kapla 13   4 6 2021-09-26 08:53:00
Zgornja Radovna 8   - - 2021-09-26 08:53:00
Zgornja Sorica 15   - - 2021-09-26 08:53:00
Source: Slovenian Environmental Agency, meteo.si